sensor_id;sensor_type;location;lat;lon;timestamp;P1;durP1;ratioP1;P2;durP2;ratioP2
3625;SDS011;1827;50.534;8.316;2023-02-28T00:02:22;14.50;;;4.93;;
3625;SDS011;1827;50.534;8.316;2023-02-28T00:04:48;16.70;;;5.60;;
3625;SDS011;1827;50.534;8.316;2023-02-28T00:07:18;16.87;;;5.63;;
3625;SDS011;1827;50.534;8.316;2023-02-28T00:09:44;16.50;;;5.53;;
3625;SDS011;1827;50.534;8.316;2023-02-28T00:12:10;16.67;;;5.97;;
3625;SDS011;1827;50.534;8.316;2023-02-28T00:14:38;16.43;;;5.20;;
3625;SDS011;1827;50.534;8.316;2023-02-28T00:17:04;17.20;;;5.67;;
3625;SDS011;1827;50.534;8.316;2023-02-28T00:19:30;17.00;;;5.87;;
3625;SDS011;1827;50.534;8.316;2023-02-28T00:21:55;14.43;;;4.90;;
3625;SDS011;1827;50.534;8.316;2023-02-28T00:24:21;18.80;;;6.27;;
3625;SDS011;1827;50.534;8.316;2023-02-28T00:26:46;15.73;;;5.30;;
3625;SDS011;1827;50.534;8.316;2023-02-28T00:29:14;15.17;;;5.13;;
3625;SDS011;1827;50.534;8.316;2023-02-28T00:31:43;18.63;;;5.70;;
3625;SDS011;1827;50.534;8.316;2023-02-28T00:34:10;15.80;;;5.70;;
3625;SDS011;1827;50.534;8.316;2023-02-28T00:36:36;16.87;;;6.03;;
3625;SDS011;1827;50.534;8.316;2023-02-28T00:39:03;18.70;;;6.17;;
3625;SDS011;1827;50.534;8.316;2023-02-28T00:41:29;18.20;;;6.50;;
3625;SDS011;1827;50.534;8.316;2023-02-28T00:43:54;18.10;;;5.80;;
3625;SDS011;1827;50.534;8.316;2023-02-28T00:46:20;18.17;;;6.43;;
3625;SDS011;1827;50.534;8.316;2023-02-28T00:48:46;16.10;;;5.97;;
3625;SDS011;1827;50.534;8.316;2023-02-28T00:51:14;17.83;;;5.90;;
3625;SDS011;1827;50.534;8.316;2023-02-28T00:53:40;19.57;;;7.13;;
3625;SDS011;1827;50.534;8.316;2023-02-28T00:56:06;17.87;;;6.67;;
3625;SDS011;1827;50.534;8.316;2023-02-28T00:58:31;18.47;;;6.33;;
3625;SDS011;1827;50.534;8.316;2023-02-28T01:00:57;18.00;;;6.50;;
3625;SDS011;1827;50.534;8.316;2023-02-28T01:03:23;18.07;;;6.20;;
3625;SDS011;1827;50.534;8.316;2023-02-28T01:05:49;20.20;;;6.20;;
3625;SDS011;1827;50.534;8.316;2023-02-28T01:08:18;18.23;;;6.60;;
3625;SDS011;1827;50.534;8.316;2023-02-28T01:10:44;17.80;;;5.80;;
3625;SDS011;1827;50.534;8.316;2023-02-28T01:13:11;15.80;;;5.67;;
3625;SDS011;1827;50.534;8.316;2023-02-28T01:15:38;19.73;;;5.90;;
3625;SDS011;1827;50.534;8.316;2023-02-28T01:18:14;17.50;;;6.33;;
3625;SDS011;1827;50.534;8.316;2023-02-28T01:20:39;14.70;;;5.40;;
3625;SDS011;1827;50.534;8.316;2023-02-28T01:23:05;16.77;;;5.40;;
3625;SDS011;1827;50.534;8.316;2023-02-28T01:25:36;16.07;;;5.50;;
3625;SDS011;1827;50.534;8.316;2023-02-28T01:28:03;17.40;;;5.47;;
3625;SDS011;1827;50.534;8.316;2023-02-28T01:30:30;18.97;;;5.87;;
3625;SDS011;1827;50.534;8.316;2023-02-28T01:32:57;15.33;;;5.73;;
3625;SDS011;1827;50.534;8.316;2023-02-28T01:35:24;17.70;;;5.53;;
3625;SDS011;1827;50.534;8.316;2023-02-28T01:37:50;21.73;;;5.53;;
3625;SDS011;1827;50.534;8.316;2023-02-28T01:40:16;16.10;;;5.67;;
3625;SDS011;1827;50.534;8.316;2023-02-28T01:42:41;17.17;;;6.17;;
3625;SDS011;1827;50.534;8.316;2023-02-28T01:45:19;18.27;;;5.43;;
3625;SDS011;1827;50.534;8.316;2023-02-28T01:47:52;17.10;;;5.70;;
3625;SDS011;1827;50.534;8.316;2023-02-28T01:50:31;20.47;;;5.60;;
3625;SDS011;1827;50.534;8.316;2023-02-28T01:53:04;18.13;;;5.53;;
3625;SDS011;1827;50.534;8.316;2023-02-28T01:55:34;18.10;;;5.47;;
3625;SDS011;1827;50.534;8.316;2023-02-28T01:58:02;17.30;;;5.60;;
3625;SDS011;1827;50.534;8.316;2023-02-28T02:00:29;17.70;;;5.60;;
3625;SDS011;1827;50.534;8.316;2023-02-28T02:02:59;15.70;;;5.60;;
3625;SDS011;1827;50.534;8.316;2023-02-28T02:05:34;16.17;;;6.00;;
3625;SDS011;1827;50.534;8.316;2023-02-28T02:08:04;16.47;;;5.77;;
3625;SDS011;1827;50.534;8.316;2023-02-28T02:10:42;16.23;;;5.87;;
3625;SDS011;1827;50.534;8.316;2023-02-28T02:21:55;17.40;;;5.70;;
3625;SDS011;1827;50.534;8.316;2023-02-28T02:24:46;17.17;;;5.70;;
3625;SDS011;1827;50.534;8.316;2023-02-28T02:38:26;18.33;;;6.47;;
3625;SDS011;1827;50.534;8.316;2023-02-28T02:47:03;23.73;;;6.70;;
3625;SDS011;1827;50.534;8.316;2023-02-28T02:49:35;18.67;;;6.30;;
3625;SDS011;1827;50.534;8.316;2023-02-28T02:52:04;18.80;;;5.90;;
3625;SDS011;1827;50.534;8.316;2023-02-28T02:54:37;16.97;;;6.87;;
3625;SDS011;1827;50.534;8.316;2023-02-28T02:57:07;17.03;;;6.80;;
3625;SDS011;1827;50.534;8.316;2023-02-28T02:59:39;18.63;;;6.27;;
3625;SDS011;1827;50.534;8.316;2023-02-28T03:02:07;20.33;;;7.07;;
3625;SDS011;1827;50.534;8.316;2023-02-28T03:04:40;23.40;;;6.70;;
3625;SDS011;1827;50.534;8.316;2023-02-28T03:07:10;17.77;;;6.20;;
3625;SDS011;1827;50.534;8.316;2023-02-28T03:09:36;16.80;;;6.20;;
3625;SDS011;1827;50.534;8.316;2023-02-28T03:12:02;18.87;;;7.20;;
3625;SDS011;1827;50.534;8.316;2023-02-28T03:17:24;20.83;;;7.27;;
3625;SDS011;1827;50.534;8.316;2023-02-28T03:23:02;16.73;;;6.43;;
3625;SDS011;1827;50.534;8.316;2023-02-28T03:28:43;19.37;;;6.40;;
3625;SDS011;1827;50.534;8.316;2023-02-28T03:31:36;22.10;;;7.10;;
3625;SDS011;1827;50.534;8.316;2023-02-28T03:34:14;20.40;;;7.23;;
3625;SDS011;1827;50.534;8.316;2023-02-28T03:36:45;18.63;;;6.30;;
3625;SDS011;1827;50.534;8.316;2023-02-28T03:39:26;15.43;;;5.90;;
3625;SDS011;1827;50.534;8.316;2023-02-28T03:41:59;16.07;;;6.10;;
3625;SDS011;1827;50.534;8.316;2023-02-28T03:47:08;16.40;;;6.57;;
3625;SDS011;1827;50.534;8.316;2023-02-28T03:49:52;17.03;;;7.00;;
3625;SDS011;1827;50.534;8.316;2023-02-28T03:52:21;22.60;;;6.50;;
3625;SDS011;1827;50.534;8.316;2023-02-28T03:54:51;18.20;;;6.57;;
3625;SDS011;1827;50.534;8.316;2023-02-28T03:57:28;16.30;;;6.90;;
3625;SDS011;1827;50.534;8.316;2023-02-28T04:00:48;21.10;;;7.13;;
3625;SDS011;1827;50.534;8.316;2023-02-28T04:02:57;18.23;;;6.60;;
3625;SDS011;1827;50.534;8.316;2023-02-28T04:05:23;17.07;;;6.20;;
3625;SDS011;1827;50.534;8.316;2023-02-28T04:07:49;18.60;;;6.90;;
3625;SDS011;1827;50.534;8.316;2023-02-28T04:10:16;21.87;;;7.20;;
3625;SDS011;1827;50.534;8.316;2023-02-28T04:12:42;18.63;;;7.53;;
3625;SDS011;1827;50.534;8.316;2023-02-28T04:15:08;20.50;;;7.10;;
3625;SDS011;1827;50.534;8.316;2023-02-28T04:17:35;17.13;;;6.13;;
3625;SDS011;1827;50.534;8.316;2023-02-28T04:20:01;17.60;;;6.73;;
3625;SDS011;1827;50.534;8.316;2023-02-28T04:22:28;20.93;;;6.53;;
3625;SDS011;1827;50.534;8.316;2023-02-28T04:24:53;19.63;;;7.10;;
3625;SDS011;1827;50.534;8.316;2023-02-28T04:27:20;18.00;;;6.53;;
3625;SDS011;1827;50.534;8.316;2023-02-28T04:29:46;19.00;;;7.30;;
3625;SDS011;1827;50.534;8.316;2023-02-28T04:32:11;17.97;;;6.87;;
3625;SDS011;1827;50.534;8.316;2023-02-28T04:34:37;20.53;;;7.60;;
3625;SDS011;1827;50.534;8.316;2023-02-28T04:37:03;20.27;;;7.60;;
3625;SDS011;1827;50.534;8.316;2023-02-28T04:39:29;17.13;;;6.60;;
3625;SDS011;1827;50.534;8.316;2023-02-28T04:41:55;17.43;;;6.83;;
3625;SDS011;1827;50.534;8.316;2023-02-28T04:44:21;17.00;;;6.33;;
3625;SDS011;1827;50.534;8.316;2023-02-28T04:46:48;19.00;;;7.10;;
3625;SDS011;1827;50.534;8.316;2023-02-28T04:49:14;19.10;;;7.00;;
3625;SDS011;1827;50.534;8.316;2023-02-28T04:51:40;17.53;;;6.80;;
3625;SDS011;1827;50.534;8.316;2023-02-28T04:54:06;19.93;;;6.53;;
3625;SDS011;1827;50.534;8.316;2023-02-28T04:56:32;16.90;;;6.47;;
3625;SDS011;1827;50.534;8.316;2023-02-28T04:58:58;16.57;;;6.70;;
3625;SDS011;1827;50.534;8.316;2023-02-28T05:01:25;19.43;;;7.60;;
3625;SDS011;1827;50.534;8.316;2023-02-28T05:03:54;20.67;;;8.10;;
3625;SDS011;1827;50.534;8.316;2023-02-28T05:06:21;22.70;;;8.00;;
3625;SDS011;1827;50.534;8.316;2023-02-28T05:08:49;20.30;;;7.03;;
3625;SDS011;1827;50.534;8.316;2023-02-28T05:11:22;17.17;;;7.10;;
3625;SDS011;1827;50.534;8.316;2023-02-28T05:13:51;20.83;;;7.67;;
3625;SDS011;1827;50.534;8.316;2023-02-28T05:16:17;18.20;;;6.67;;
3625;SDS011;1827;50.534;8.316;2023-02-28T05:18:43;21.83;;;7.70;;
3625;SDS011;1827;50.534;8.316;2023-02-28T05:23:49;19.47;;;7.77;;
3625;SDS011;1827;50.534;8.316;2023-02-28T05:26:15;19.87;;;7.07;;
3625;SDS011;1827;50.534;8.316;2023-02-28T05:28:42;19.43;;;7.80;;
3625;SDS011;1827;50.534;8.316;2023-02-28T05:31:10;19.60;;;7.87;;
3625;SDS011;1827;50.534;8.316;2023-02-28T05:33:37;18.87;;;6.43;;
3625;SDS011;1827;50.534;8.316;2023-02-28T05:36:04;18.93;;;7.33;;
3625;SDS011;1827;50.534;8.316;2023-02-28T05:38:35;25.63;;;8.30;;
3625;SDS011;1827;50.534;8.316;2023-02-28T05:41:17;22.50;;;8.47;;
3625;SDS011;1827;50.534;8.316;2023-02-28T05:43:45;22.27;;;7.87;;
3625;SDS011;1827;50.534;8.316;2023-02-28T05:46:11;18.07;;;7.27;;
3625;SDS011;1827;50.534;8.316;2023-02-28T05:48:40;18.90;;;7.17;;
3625;SDS011;1827;50.534;8.316;2023-02-28T05:51:08;18.20;;;7.30;;
3625;SDS011;1827;50.534;8.316;2023-02-28T05:53:35;19.93;;;7.17;;
3625;SDS011;1827;50.534;8.316;2023-02-28T05:56:01;17.27;;;7.07;;
3625;SDS011;1827;50.534;8.316;2023-02-28T05:58:27;18.53;;;7.17;;
3625;SDS011;1827;50.534;8.316;2023-02-28T06:00:59;19.50;;;7.50;;
3625;SDS011;1827;50.534;8.316;2023-02-28T06:03:45;21.17;;;8.30;;
3625;SDS011;1827;50.534;8.316;2023-02-28T06:06:13;21.50;;;8.63;;
3625;SDS011;1827;50.534;8.316;2023-02-28T06:08:40;19.17;;;7.90;;
3625;SDS011;1827;50.534;8.316;2023-02-28T06:11:10;23.00;;;8.20;;
3625;SDS011;1827;50.534;8.316;2023-02-28T06:13:41;20.50;;;7.97;;
3625;SDS011;1827;50.534;8.316;2023-02-28T06:16:09;19.67;;;7.73;;
3625;SDS011;1827;50.534;8.316;2023-02-28T06:18:39;22.93;;;7.63;;
3625;SDS011;1827;50.534;8.316;2023-02-28T06:21:10;20.17;;;7.47;;
3625;SDS011;1827;50.534;8.316;2023-02-28T06:23:40;20.57;;;7.53;;
3625;SDS011;1827;50.534;8.316;2023-02-28T06:26:09;21.80;;;8.33;;
3625;SDS011;1827;50.534;8.316;2023-02-28T06:28:38;20.77;;;8.20;;
3625;SDS011;1827;50.534;8.316;2023-02-28T06:31:09;37.60;;;15.77;;
3625;SDS011;1827;50.534;8.316;2023-02-28T06:33:37;31.60;;;11.00;;
3625;SDS011;1827;50.534;8.316;2023-02-28T06:36:07;26.30;;;10.73;;
3625;SDS011;1827;50.534;8.316;2023-02-28T06:38:35;23.63;;;10.00;;
3625;SDS011;1827;50.534;8.316;2023-02-28T06:41:03;20.77;;;8.63;;
3625;SDS011;1827;50.534;8.316;2023-02-28T06:43:31;21.60;;;8.77;;
3625;SDS011;1827;50.534;8.316;2023-02-28T06:46:05;25.50;;;8.47;;
3625;SDS011;1827;50.534;8.316;2023-02-28T06:48:35;21.77;;;7.90;;
3625;SDS011;1827;50.534;8.316;2023-02-28T06:51:02;21.23;;;8.53;;
3625;SDS011;1827;50.534;8.316;2023-02-28T06:53:28;21.70;;;8.30;;
3625;SDS011;1827;50.534;8.316;2023-02-28T06:55:56;20.83;;;7.50;;
3625;SDS011;1827;50.534;8.316;2023-02-28T06:58:26;23.50;;;9.77;;
3625;SDS011;1827;50.534;8.316;2023-02-28T07:00:56;24.87;;;7.63;;
3625;SDS011;1827;50.534;8.316;2023-02-28T07:03:25;24.27;;;7.20;;
3625;SDS011;1827;50.534;8.316;2023-02-28T07:05:52;23.30;;;7.27;;
3625;SDS011;1827;50.534;8.316;2023-02-28T07:08:23;20.57;;;6.73;;
3625;SDS011;1827;50.534;8.316;2023-02-28T07:10:54;21.57;;;6.23;;
3625;SDS011;1827;50.534;8.316;2023-02-28T07:13:22;18.37;;;6.20;;
3625;SDS011;1827;50.534;8.316;2023-02-28T07:15:58;20.03;;;6.87;;
3625;SDS011;1827;50.534;8.316;2023-02-28T07:18:28;17.60;;;5.97;;
3625;SDS011;1827;50.534;8.316;2023-02-28T07:20:54;14.87;;;5.20;;
3625;SDS011;1827;50.534;8.316;2023-02-28T07:23:24;14.70;;;5.10;;
3625;SDS011;1827;50.534;8.316;2023-02-28T07:25:53;15.10;;;5.13;;
3625;SDS011;1827;50.534;8.316;2023-02-28T07:28:20;16.80;;;6.00;;
3625;SDS011;1827;50.534;8.316;2023-02-28T07:30:52;17.13;;;4.73;;
3625;SDS011;1827;50.534;8.316;2023-02-28T07:33:24;15.17;;;5.10;;
3625;SDS011;1827;50.534;8.316;2023-02-28T07:35:59;18.03;;;4.77;;
3625;SDS011;1827;50.534;8.316;2023-02-28T07:38:29;15.97;;;4.87;;
3625;SDS011;1827;50.534;8.316;2023-02-28T07:40:56;14.80;;;4.50;;
3625;SDS011;1827;50.534;8.316;2023-02-28T07:43:31;15.00;;;5.13;;
3625;SDS011;1827;50.534;8.316;2023-02-28T07:46:11;16.97;;;4.90;;
3625;SDS011;1827;50.534;8.316;2023-02-28T07:48:46;17.33;;;5.43;;
3625;SDS011;1827;50.534;8.316;2023-02-28T07:51:12;15.57;;;5.00;;
3625;SDS011;1827;50.534;8.316;2023-02-28T07:53:42;15.63;;;5.00;;
3625;SDS011;1827;50.534;8.316;2023-02-28T07:56:07;14.50;;;4.83;;
3625;SDS011;1827;50.534;8.316;2023-02-28T07:58:33;23.53;;;5.63;;
3625;SDS011;1827;50.534;8.316;2023-02-28T08:01:06;16.23;;;5.60;;
3625;SDS011;1827;50.534;8.316;2023-02-28T08:03:38;16.47;;;5.07;;
3625;SDS011;1827;50.534;8.316;2023-02-28T08:06:11;18.37;;;4.97;;
3625;SDS011;1827;50.534;8.316;2023-02-28T08:08:47;18.20;;;5.23;;
3625;SDS011;1827;50.534;8.316;2023-02-28T08:11:18;15.10;;;4.80;;
3625;SDS011;1827;50.534;8.316;2023-02-28T08:13:45;14.40;;;4.60;;
3625;SDS011;1827;50.534;8.316;2023-02-28T08:16:15;16.03;;;4.33;;
3625;SDS011;1827;50.534;8.316;2023-02-28T08:18:51;13.30;;;4.07;;
3625;SDS011;1827;50.534;8.316;2023-02-28T08:21:21;14.50;;;5.40;;
3625;SDS011;1827;50.534;8.316;2023-02-28T08:23:47;19.80;;;6.27;;
3625;SDS011;1827;50.534;8.316;2023-02-28T08:26:18;18.10;;;4.80;;
3625;SDS011;1827;50.534;8.316;2023-02-28T08:28:45;15.23;;;3.73;;
3625;SDS011;1827;50.534;8.316;2023-02-28T08:31:15;16.73;;;4.63;;
3625;SDS011;1827;50.534;8.316;2023-02-28T08:33:44;16.23;;;5.20;;
3625;SDS011;1827;50.534;8.316;2023-02-28T08:36:13;14.10;;;4.43;;
3625;SDS011;1827;50.534;8.316;2023-02-28T08:38:40;15.97;;;4.17;;
3625;SDS011;1827;50.534;8.316;2023-02-28T08:41:09;14.20;;;4.13;;
3625;SDS011;1827;50.534;8.316;2023-02-28T08:43:38;16.73;;;4.27;;
3625;SDS011;1827;50.534;8.316;2023-02-28T08:46:06;14.80;;;4.43;;
3625;SDS011;1827;50.534;8.316;2023-02-28T08:48:39;15.90;;;4.30;;
3625;SDS011;1827;50.534;8.316;2023-02-28T08:51:11;12.73;;;3.80;;
3625;SDS011;1827;50.534;8.316;2023-02-28T08:53:45;23.20;;;4.40;;
3625;SDS011;1827;50.534;8.316;2023-02-28T08:56:17;15.20;;;4.23;;
3625;SDS011;1827;50.534;8.316;2023-02-28T08:58:49;15.50;;;4.47;;
3625;SDS011;1827;50.534;8.316;2023-02-28T09:01:23;14.10;;;4.90;;
3625;SDS011;1827;50.534;8.316;2023-02-28T09:03:52;17.07;;;4.30;;
3625;SDS011;1827;50.534;8.316;2023-02-28T09:06:20;15.27;;;4.40;;
3625;SDS011;1827;50.534;8.316;2023-02-28T09:08:56;14.27;;;4.23;;
3625;SDS011;1827;50.534;8.316;2023-02-28T09:11:28;15.60;;;4.57;;
3625;SDS011;1827;50.534;8.316;2023-02-28T09:13:53;22.00;;;7.40;;
3625;SDS011;1827;50.534;8.316;2023-02-28T09:16:28;34.20;;;11.37;;
3625;SDS011;1827;50.534;8.316;2023-02-28T09:18:58;22.47;;;7.00;;
3625;SDS011;1827;50.534;8.316;2023-02-28T09:21:24;15.60;;;5.00;;
3625;SDS011;1827;50.534;8.316;2023-02-28T09:23:54;15.47;;;4.40;;
3625;SDS011;1827;50.534;8.316;2023-02-28T09:26:25;14.97;;;4.33;;
3625;SDS011;1827;50.534;8.316;2023-02-28T09:28:53;16.23;;;4.03;;
3625;SDS011;1827;50.534;8.316;2023-02-28T09:31:25;19.70;;;4.50;;
3625;SDS011;1827;50.534;8.316;2023-02-28T09:33:56;13.70;;;4.37;;
3625;SDS011;1827;50.534;8.316;2023-02-28T09:36:29;15.10;;;4.40;;
3625;SDS011;1827;50.534;8.316;2023-02-28T09:38:57;15.10;;;4.60;;
3625;SDS011;1827;50.534;8.316;2023-02-28T09:41:32;15.37;;;4.57;;
3625;SDS011;1827;50.534;8.316;2023-02-28T09:44:26;13.73;;;4.07;;
3625;SDS011;1827;50.534;8.316;2023-02-28T09:46:59;14.90;;;4.63;;
3625;SDS011;1827;50.534;8.316;2023-02-28T09:49:39;16.60;;;3.97;;
3625;SDS011;1827;50.534;8.316;2023-02-28T09:52:15;13.83;;;3.93;;
3625;SDS011;1827;50.534;8.316;2023-02-28T09:54:49;20.30;;;4.10;;
3625;SDS011;1827;50.534;8.316;2023-02-28T09:57:21;15.47;;;4.40;;
3625;SDS011;1827;50.534;8.316;2023-02-28T10:00:18;18.50;;;4.80;;
3625;SDS011;1827;50.534;8.316;2023-02-28T10:03:00;14.20;;;3.97;;
3625;SDS011;1827;50.534;8.316;2023-02-28T10:08:36;14.60;;;4.23;;
3625;SDS011;1827;50.534;8.316;2023-02-28T10:11:14;19.20;;;3.90;;
3625;SDS011;1827;50.534;8.316;2023-02-28T10:16:27;17.40;;;4.70;;
3625;SDS011;1827;50.534;8.316;2023-02-28T10:19:09;15.17;;;4.60;;
3625;SDS011;1827;50.534;8.316;2023-02-28T10:21:47;14.40;;;4.40;;
3625;SDS011;1827;50.534;8.316;2023-02-28T10:27:05;17.67;;;4.83;;
3625;SDS011;1827;50.534;8.316;2023-02-28T10:29:50;14.63;;;4.27;;
3625;SDS011;1827;50.534;8.316;2023-02-28T10:32:31;14.83;;;4.43;;
3625;SDS011;1827;50.534;8.316;2023-02-28T10:37:41;16.43;;;4.83;;
3625;SDS011;1827;50.534;8.316;2023-02-28T10:45:33;14.63;;;4.00;;
3625;SDS011;1827;50.534;8.316;2023-02-28T10:48:04;14.80;;;4.10;;
3625;SDS011;1827;50.534;8.316;2023-02-28T10:55:45;17.27;;;5.30;;
3625;SDS011;1827;50.534;8.316;2023-02-28T10:58:28;16.13;;;5.30;;
3625;SDS011;1827;50.534;8.316;2023-02-28T11:01:16;13.77;;;4.27;;
3625;SDS011;1827;50.534;8.316;2023-02-28T11:03:47;17.10;;;5.07;;
3625;SDS011;1827;50.534;8.316;2023-02-28T11:08:50;17.83;;;4.60;;
3625;SDS011;1827;50.534;8.316;2023-02-28T11:11:23;15.60;;;5.33;;
3625;SDS011;1827;50.534;8.316;2023-02-28T11:13:53;17.10;;;5.33;;
3625;SDS011;1827;50.534;8.316;2023-02-28T11:16:31;16.33;;;5.60;;
3625;SDS011;1827;50.534;8.316;2023-02-28T11:19:03;15.00;;;4.90;;
3625;SDS011;1827;50.534;8.316;2023-02-28T11:21:36;16.67;;;5.23;;
3625;SDS011;1827;50.534;8.316;2023-02-28T11:24:24;16.23;;;4.93;;
3625;SDS011;1827;50.534;8.316;2023-02-28T11:27:02;19.23;;;5.70;;
3625;SDS011;1827;50.534;8.316;2023-02-28T11:29:29;15.70;;;4.67;;
3625;SDS011;1827;50.534;8.316;2023-02-28T11:32:10;15.23;;;4.60;;
3625;SDS011;1827;50.534;8.316;2023-02-28T11:34:37;19.23;;;4.73;;
3625;SDS011;1827;50.534;8.316;2023-02-28T11:37:05;16.47;;;5.00;;
3625;SDS011;1827;50.534;8.316;2023-02-28T11:39:36;19.53;;;6.13;;
3625;SDS011;1827;50.534;8.316;2023-02-28T12:01:43;17.70;;;6.00;;
3625;SDS011;1827;50.534;8.316;2023-02-28T12:07:02;15.70;;;5.23;;
3625;SDS011;1827;50.534;8.316;2023-02-28T12:09:47;17.20;;;5.50;;
3625;SDS011;1827;50.534;8.316;2023-02-28T12:12:29;18.33;;;5.70;;
3625;SDS011;1827;50.534;8.316;2023-02-28T12:15:19;21.63;;;6.10;;
3625;SDS011;1827;50.534;8.316;2023-02-28T12:23:19;17.43;;;6.20;;
3625;SDS011;1827;50.534;8.316;2023-02-28T12:28:28;19.30;;;6.37;;
3625;SDS011;1827;50.534;8.316;2023-02-28T12:31:10;18.03;;;6.20;;
3625;SDS011;1827;50.534;8.316;2023-02-28T12:33:46;17.77;;;5.97;;
3625;SDS011;1827;50.534;8.316;2023-02-28T12:36:16;21.67;;;5.90;;
3625;SDS011;1827;50.534;8.316;2023-02-28T12:38:53;17.80;;;5.90;;
3625;SDS011;1827;50.534;8.316;2023-02-28T12:41:32;18.27;;;5.50;;
3625;SDS011;1827;50.534;8.316;2023-02-28T12:46:51;19.60;;;7.13;;
3625;SDS011;1827;50.534;8.316;2023-02-28T12:49:23;20.80;;;6.70;;
3625;SDS011;1827;50.534;8.316;2023-02-28T12:51:56;18.50;;;6.50;;
3625;SDS011;1827;50.534;8.316;2023-02-28T12:54:36;17.40;;;6.33;;
3625;SDS011;1827;50.534;8.316;2023-02-28T12:57:12;17.93;;;5.80;;
3625;SDS011;1827;50.534;8.316;2023-02-28T13:02:23;18.20;;;7.20;;
3625;SDS011;1827;50.534;8.316;2023-02-28T13:05:22;19.43;;;6.73;;
3625;SDS011;1827;50.534;8.316;2023-02-28T13:08:21;18.33;;;6.60;;
3625;SDS011;1827;50.534;8.316;2023-02-28T13:11:24;18.70;;;6.63;;
3625;SDS011;1827;50.534;8.316;2023-02-28T13:14:00;20.33;;;7.10;;
3625;SDS011;1827;50.534;8.316;2023-02-28T13:16:28;17.27;;;6.77;;
3625;SDS011;1827;50.534;8.316;2023-02-28T13:19:28;19.93;;;6.63;;
3625;SDS011;1827;50.534;8.316;2023-02-28T13:21:59;23.70;;;6.70;;
3625;SDS011;1827;50.534;8.316;2023-02-28T13:29:44;18.73;;;6.60;;
3625;SDS011;1827;50.534;8.316;2023-02-28T13:34:49;18.73;;;6.40;;
3625;SDS011;1827;50.534;8.316;2023-02-28T13:37:34;20.70;;;7.47;;
3625;SDS011;1827;50.534;8.316;2023-02-28T13:42:51;21.80;;;6.80;;
3625;SDS011;1827;50.534;8.316;2023-02-28T13:45:27;21.70;;;7.20;;
3625;SDS011;1827;50.534;8.316;2023-02-28T13:50:31;19.20;;;6.87;;
3625;SDS011;1827;50.534;8.316;2023-02-28T13:55:43;19.40;;;6.90;;
3625;SDS011;1827;50.534;8.316;2023-02-28T14:06:15;18.80;;;6.67;;
3625;SDS011;1827;50.534;8.316;2023-02-28T14:09:03;16.10;;;6.07;;
3625;SDS011;1827;50.534;8.316;2023-02-28T14:11:44;18.90;;;7.63;;
3625;SDS011;1827;50.534;8.316;2023-02-28T14:17:17;18.70;;;7.00;;
3625;SDS011;1827;50.534;8.316;2023-02-28T14:19:44;20.20;;;6.87;;
3625;SDS011;1827;50.534;8.316;2023-02-28T14:22:25;19.50;;;7.00;;
3625;SDS011;1827;50.534;8.316;2023-02-28T14:33:43;19.53;;;7.10;;
3625;SDS011;1827;50.534;8.316;2023-02-28T14:36:35;17.83;;;6.60;;
3625;SDS011;1827;50.534;8.316;2023-02-28T14:39:07;22.37;;;6.93;;
3625;SDS011;1827;50.534;8.316;2023-02-28T14:41:44;18.57;;;7.00;;
3625;SDS011;1827;50.534;8.316;2023-02-28T14:46:40;19.53;;;7.53;;
3625;SDS011;1827;50.534;8.316;2023-02-28T14:49:26;21.03;;;7.83;;
3625;SDS011;1827;50.534;8.316;2023-02-28T14:54:42;20.40;;;7.77;;
3625;SDS011;1827;50.534;8.316;2023-02-28T14:57:26;18.20;;;6.80;;
3625;SDS011;1827;50.534;8.316;2023-02-28T15:00:00;19.93;;;6.40;;
3625;SDS011;1827;50.534;8.316;2023-02-28T15:02:34;19.70;;;7.33;;
3625;SDS011;1827;50.534;8.316;2023-02-28T15:05:02;19.60;;;6.77;;
3625;SDS011;1827;50.534;8.316;2023-02-28T15:07:35;19.80;;;7.20;;
3625;SDS011;1827;50.534;8.316;2023-02-28T15:10:36;22.20;;;7.90;;
3625;SDS011;1827;50.534;8.316;2023-02-28T15:13:06;22.60;;;9.50;;
3625;SDS011;1827;50.534;8.316;2023-02-28T15:15:44;19.30;;;7.33;;
3625;SDS011;1827;50.534;8.316;2023-02-28T15:20:48;18.37;;;7.33;;
3625;SDS011;1827;50.534;8.316;2023-02-28T15:23:15;20.67;;;8.10;;
3625;SDS011;1827;50.534;8.316;2023-02-28T15:25:41;20.87;;;8.23;;
3625;SDS011;1827;50.534;8.316;2023-02-28T15:28:12;18.60;;;7.23;;
3625;SDS011;1827;50.534;8.316;2023-02-28T15:30:50;19.20;;;7.40;;
3625;SDS011;1827;50.534;8.316;2023-02-28T15:33:25;20.20;;;7.50;;
3625;SDS011;1827;50.534;8.316;2023-02-28T15:38:58;18.03;;;6.10;;
3625;SDS011;1827;50.534;8.316;2023-02-28T15:41:35;17.80;;;6.77;;
3625;SDS011;1827;50.534;8.316;2023-02-28T15:47:06;20.50;;;7.80;;
3625;SDS011;1827;50.534;8.316;2023-02-28T15:52:16;21.50;;;7.60;;
3625;SDS011;1827;50.534;8.316;2023-02-28T15:54:47;20.03;;;6.67;;
3625;SDS011;1827;50.534;8.316;2023-02-28T15:57:23;25.07;;;7.00;;
3625;SDS011;1827;50.534;8.316;2023-02-28T15:59:52;20.60;;;7.80;;
3625;SDS011;1827;50.534;8.316;2023-02-28T16:02:22;18.47;;;7.17;;
3625;SDS011;1827;50.534;8.316;2023-02-28T16:07:41;22.77;;;6.90;;
3625;SDS011;1827;50.534;8.316;2023-02-28T16:10:09;20.10;;;8.17;;
3625;SDS011;1827;50.534;8.316;2023-02-28T16:12:37;18.70;;;7.23;;
3625;SDS011;1827;50.534;8.316;2023-02-28T16:15:26;21.10;;;7.83;;
3625;SDS011;1827;50.534;8.316;2023-02-28T16:17:54;19.97;;;7.10;;
3625;SDS011;1827;50.534;8.316;2023-02-28T16:20:30;21.67;;;7.33;;
3625;SDS011;1827;50.534;8.316;2023-02-28T16:22:56;20.97;;;6.70;;
3625;SDS011;1827;50.534;8.316;2023-02-28T16:25:28;20.97;;;6.80;;
3625;SDS011;1827;50.534;8.316;2023-02-28T16:27:59;20.30;;;7.90;;
3625;SDS011;1827;50.534;8.316;2023-02-28T16:30:27;22.93;;;8.07;;
3625;SDS011;1827;50.534;8.316;2023-02-28T16:32:56;22.17;;;7.57;;
3625;SDS011;1827;50.534;8.316;2023-02-28T16:35:22;19.60;;;8.47;;
3625;SDS011;1827;50.534;8.316;2023-02-28T16:37:50;24.80;;;8.00;;
3625;SDS011;1827;50.534;8.316;2023-02-28T16:40:19;22.40;;;7.37;;
3625;SDS011;1827;50.534;8.316;2023-02-28T16:42:51;18.23;;;6.53;;
3625;SDS011;1827;50.534;8.316;2023-02-28T16:45:21;18.40;;;7.23;;
3625;SDS011;1827;50.534;8.316;2023-02-28T16:47:52;19.30;;;7.57;;
3625;SDS011;1827;50.534;8.316;2023-02-28T16:50:20;20.23;;;7.63;;
3625;SDS011;1827;50.534;8.316;2023-02-28T16:52:48;20.63;;;7.63;;
3625;SDS011;1827;50.534;8.316;2023-02-28T16:55:14;18.43;;;6.70;;
3625;SDS011;1827;50.534;8.316;2023-02-28T16:57:40;24.17;;;7.30;;
3625;SDS011;1827;50.534;8.316;2023-02-28T17:00:07;23.67;;;10.00;;
3625;SDS011;1827;50.534;8.316;2023-02-28T17:02:36;26.80;;;11.50;;
3625;SDS011;1827;50.534;8.316;2023-02-28T17:05:02;30.73;;;13.40;;
3625;SDS011;1827;50.534;8.316;2023-02-28T17:07:28;25.73;;;9.83;;
3625;SDS011;1827;50.534;8.316;2023-02-28T17:09:53;20.27;;;8.43;;
3625;SDS011;1827;50.534;8.316;2023-02-28T17:12:20;22.60;;;8.77;;
3625;SDS011;1827;50.534;8.316;2023-02-28T17:14:46;20.70;;;7.40;;
3625;SDS011;1827;50.534;8.316;2023-02-28T17:17:19;20.20;;;8.23;;
3625;SDS011;1827;50.534;8.316;2023-02-28T17:19:47;19.90;;;8.20;;
3625;SDS011;1827;50.534;8.316;2023-02-28T17:22:15;21.20;;;7.90;;
3625;SDS011;1827;50.534;8.316;2023-02-28T17:24:44;21.90;;;7.70;;
3625;SDS011;1827;50.534;8.316;2023-02-28T17:27:11;22.93;;;7.77;;
3625;SDS011;1827;50.534;8.316;2023-02-28T17:29:38;19.70;;;7.70;;
3625;SDS011;1827;50.534;8.316;2023-02-28T17:32:03;21.00;;;8.00;;
3625;SDS011;1827;50.534;8.316;2023-02-28T17:34:30;28.83;;;13.00;;
3625;SDS011;1827;50.534;8.316;2023-02-28T17:36:58;30.60;;;13.30;;
3625;SDS011;1827;50.534;8.316;2023-02-28T17:39:24;29.20;;;12.50;;
3625;SDS011;1827;50.534;8.316;2023-02-28T17:41:52;21.97;;;9.10;;
3625;SDS011;1827;50.534;8.316;2023-02-28T17:44:22;21.27;;;8.30;;
3625;SDS011;1827;50.534;8.316;2023-02-28T17:46:51;25.67;;;9.50;;
3625;SDS011;1827;50.534;8.316;2023-02-28T17:49:22;22.37;;;8.50;;
3625;SDS011;1827;50.534;8.316;2023-02-28T17:51:48;22.80;;;8.70;;
3625;SDS011;1827;50.534;8.316;2023-02-28T17:54:15;28.10;;;9.40;;
3625;SDS011;1827;50.534;8.316;2023-02-28T17:56:43;23.37;;;9.60;;
3625;SDS011;1827;50.534;8.316;2023-02-28T17:59:10;24.40;;;10.07;;
3625;SDS011;1827;50.534;8.316;2023-02-28T18:01:37;26.80;;;10.30;;